sensor_id;sensor_type;location;lat;lon;timestamp;P1;durP1;ratioP1;P2;durP2;ratioP2
12224;SDS011;6175;50.956;11.064;2023-12-22T00:01:45;13.48;;;4.18;;
12224;SDS011;6175;50.956;11.064;2023-12-22T00:04:12;15.40;;;4.57;;
12224;SDS011;6175;50.956;11.064;2023-12-22T00:06:40;16.45;;;4.32;;
12224;SDS011;6175;50.956;11.064;2023-12-22T00:09:07;15.98;;;4.07;;
12224;SDS011;6175;50.956;11.064;2023-12-22T00:11:34;13.73;;;3.80;;
12224;SDS011;6175;50.956;11.064;2023-12-22T00:14:01;20.02;;;4.28;;
12224;SDS011;6175;50.956;11.064;2023-12-22T00:16:29;15.07;;;4.45;;
12224;SDS011;6175;50.956;11.064;2023-12-22T00:18:56;15.00;;;4.82;;
12224;SDS011;6175;50.956;11.064;2023-12-22T00:21:23;14.40;;;4.28;;
12224;SDS011;6175;50.956;11.064;2023-12-22T00:23:52;10.85;;;3.50;;
12224;SDS011;6175;50.956;11.064;2023-12-22T00:26:19;21.25;;;4.53;;
12224;SDS011;6175;50.956;11.064;2023-12-22T00:28:46;17.30;;;4.97;;
12224;SDS011;6175;50.956;11.064;2023-12-22T00:31:13;16.40;;;3.80;;
12224;SDS011;6175;50.956;11.064;2023-12-22T00:33:42;16.83;;;4.15;;
12224;SDS011;6175;50.956;11.064;2023-12-22T00:36:09;15.70;;;3.88;;
12224;SDS011;6175;50.956;11.064;2023-12-22T00:38:36;16.05;;;3.90;;
12224;SDS011;6175;50.956;11.064;2023-12-22T00:41:03;16.13;;;4.18;;
12224;SDS011;6175;50.956;11.064;2023-12-22T00:43:30;15.68;;;3.70;;
12224;SDS011;6175;50.956;11.064;2023-12-22T00:45:57;16.13;;;4.53;;
12224;SDS011;6175;50.956;11.064;2023-12-22T00:48:24;14.32;;;4.13;;
12224;SDS011;6175;50.956;11.064;2023-12-22T00:50:53;11.55;;;3.35;;
12224;SDS011;6175;50.956;11.064;2023-12-22T00:53:20;8.63;;;2.97;;
12224;SDS011;6175;50.956;11.064;2023-12-22T00:55:47;14.88;;;3.58;;
12224;SDS011;6175;50.956;11.064;2023-12-22T00:58:14;15.68;;;4.15;;
12224;SDS011;6175;50.956;11.064;2023-12-22T01:00:41;13.82;;;4.50;;
12224;SDS011;6175;50.956;11.064;2023-12-22T01:03:08;19.05;;;4.45;;
12224;SDS011;6175;50.956;11.064;2023-12-22T01:05:36;14.93;;;3.97;;
12224;SDS011;6175;50.956;11.064;2023-12-22T01:08:05;11.60;;;3.28;;
12224;SDS011;6175;50.956;11.064;2023-12-22T01:10:33;13.35;;;3.80;;
12224;SDS011;6175;50.956;11.064;2023-12-22T01:13:00;15.38;;;3.85;;
12224;SDS011;6175;50.956;11.064;2023-12-22T01:15:26;11.98;;;3.80;;
12224;SDS011;6175;50.956;11.064;2023-12-22T01:17:54;12.55;;;3.60;;
12224;SDS011;6175;50.956;11.064;2023-12-22T01:20:20;11.23;;;3.75;;
12224;SDS011;6175;50.956;11.064;2023-12-22T01:22:47;11.93;;;3.47;;
12224;SDS011;6175;50.956;11.064;2023-12-22T01:25:16;11.95;;;3.08;;
12224;SDS011;6175;50.956;11.064;2023-12-22T01:27:43;9.98;;;3.03;;
12224;SDS011;6175;50.956;11.064;2023-12-22T01:30:11;12.77;;;3.92;;
12224;SDS011;6175;50.956;11.064;2023-12-22T01:32:38;12.07;;;3.25;;
12224;SDS011;6175;50.956;11.064;2023-12-22T01:35:05;13.93;;;3.90;;
12224;SDS011;6175;50.956;11.064;2023-12-22T01:37:34;11.52;;;3.17;;
12224;SDS011;6175;50.956;11.064;2023-12-22T01:40:02;9.07;;;3.10;;
12224;SDS011;6175;50.956;11.064;2023-12-22T01:42:32;12.52;;;3.47;;
12224;SDS011;6175;50.956;11.064;2023-12-22T01:45:00;12.45;;;3.03;;
12224;SDS011;6175;50.956;11.064;2023-12-22T01:47:27;8.43;;;2.95;;
12224;SDS011;6175;50.956;11.064;2023-12-22T01:49:54;8.82;;;2.58;;
12224;SDS011;6175;50.956;11.064;2023-12-22T01:52:21;13.55;;;2.80;;
12224;SDS011;6175;50.956;11.064;2023-12-22T01:54:49;11.60;;;3.30;;
12224;SDS011;6175;50.956;11.064;2023-12-22T01:57:16;12.07;;;3.60;;
12224;SDS011;6175;50.956;11.064;2023-12-22T01:59:46;13.48;;;3.15;;
12224;SDS011;6175;50.956;11.064;2023-12-22T02:02:15;10.82;;;3.28;;
12224;SDS011;6175;50.956;11.064;2023-12-22T02:04:43;10.38;;;3.40;;
12224;SDS011;6175;50.956;11.064;2023-12-22T02:07:10;9.40;;;2.75;;
12224;SDS011;6175;50.956;11.064;2023-12-22T02:09:38;16.15;;;3.10;;
12224;SDS011;6175;50.956;11.064;2023-12-22T02:12:05;9.85;;;2.65;;
12224;SDS011;6175;50.956;11.064;2023-12-22T02:14:32;7.70;;;2.72;;
12224;SDS011;6175;50.956;11.064;2023-12-22T02:17:03;10.25;;;3.20;;
12224;SDS011;6175;50.956;11.064;2023-12-22T02:19:40;11.50;;;3.33;;
12224;SDS011;6175;50.956;11.064;2023-12-22T02:22:08;14.75;;;3.08;;
12224;SDS011;6175;50.956;11.064;2023-12-22T02:24:38;11.07;;;2.60;;
12224;SDS011;6175;50.956;11.064;2023-12-22T02:27:05;11.82;;;3.25;;
12224;SDS011;6175;50.956;11.064;2023-12-22T02:29:41;16.00;;;3.72;;
12224;SDS011;6175;50.956;11.064;2023-12-22T02:32:14;12.07;;;3.15;;
12224;SDS011;6175;50.956;11.064;2023-12-22T02:34:49;16.83;;;3.72;;
12224;SDS011;6175;50.956;11.064;2023-12-22T02:37:18;9.52;;;3.22;;
12224;SDS011;6175;50.956;11.064;2023-12-22T02:39:46;8.20;;;2.80;;
12224;SDS011;6175;50.956;11.064;2023-12-22T02:42:14;6.60;;;2.63;;
12224;SDS011;6175;50.956;11.064;2023-12-22T02:44:41;7.50;;;2.65;;
12224;SDS011;6175;50.956;11.064;2023-12-22T02:47:08;9.90;;;2.70;;
12224;SDS011;6175;50.956;11.064;2023-12-22T02:49:35;10.52;;;2.55;;
12224;SDS011;6175;50.956;11.064;2023-12-22T02:52:03;8.90;;;2.78;;
12224;SDS011;6175;50.956;11.064;2023-12-22T02:54:30;9.35;;;2.72;;
12224;SDS011;6175;50.956;11.064;2023-12-22T02:56:59;8.73;;;2.45;;
12224;SDS011;6175;50.956;11.064;2023-12-22T02:59:26;12.00;;;2.83;;
12224;SDS011;6175;50.956;11.064;2023-12-22T03:01:53;10.02;;;3.00;;
12224;SDS011;6175;50.956;11.064;2023-12-22T03:04:20;8.35;;;2.65;;
12224;SDS011;6175;50.956;11.064;2023-12-22T03:06:48;3.97;;;2.70;;
12224;SDS011;6175;50.956;11.064;2023-12-22T03:09:15;10.55;;;2.67;;
12224;SDS011;6175;50.956;11.064;2023-12-22T03:11:42;7.95;;;2.72;;
12224;SDS011;6175;50.956;11.064;2023-12-22T03:14:10;7.20;;;2.67;;
12224;SDS011;6175;50.956;11.064;2023-12-22T03:16:37;12.30;;;2.80;;
12224;SDS011;6175;50.956;11.064;2023-12-22T03:19:05;9.32;;;2.50;;
12224;SDS011;6175;50.956;11.064;2023-12-22T03:21:32;11.02;;;3.15;;
12224;SDS011;6175;50.956;11.064;2023-12-22T03:23:59;9.07;;;2.65;;
12224;SDS011;6175;50.956;11.064;2023-12-22T03:26:26;11.27;;;3.10;;
12224;SDS011;6175;50.956;11.064;2023-12-22T03:28:53;10.40;;;3.13;;
12224;SDS011;6175;50.956;11.064;2023-12-22T03:31:22;10.57;;;3.05;;
12224;SDS011;6175;50.956;11.064;2023-12-22T03:33:49;12.02;;;3.08;;
12224;SDS011;6175;50.956;11.064;2023-12-22T03:36:16;10.65;;;3.05;;
12224;SDS011;6175;50.956;11.064;2023-12-22T03:38:43;9.10;;;2.60;;
12224;SDS011;6175;50.956;11.064;2023-12-22T03:41:10;11.35;;;3.42;;
12224;SDS011;6175;50.956;11.064;2023-12-22T03:43:37;9.23;;;2.95;;
12224;SDS011;6175;50.956;11.064;2023-12-22T03:46:04;7.30;;;2.55;;
12224;SDS011;6175;50.956;11.064;2023-12-22T03:48:32;7.93;;;2.28;;
12224;SDS011;6175;50.956;11.064;2023-12-22T03:50:59;4.30;;;1.95;;
12224;SDS011;6175;50.956;11.064;2023-12-22T03:53:26;7.80;;;2.13;;
12224;SDS011;6175;50.956;11.064;2023-12-22T03:55:54;4.95;;;2.00;;
12224;SDS011;6175;50.956;11.064;2023-12-22T03:58:21;5.70;;;2.13;;
12224;SDS011;6175;50.956;11.064;2023-12-22T04:00:48;7.00;;;2.17;;
12224;SDS011;6175;50.956;11.064;2023-12-22T04:03:15;8.35;;;2.55;;
12224;SDS011;6175;50.956;11.064;2023-12-22T04:05:43;6.77;;;2.03;;
12224;SDS011;6175;50.956;11.064;2023-12-22T04:08:10;5.57;;;2.30;;
12224;SDS011;6175;50.956;11.064;2023-12-22T04:10:37;4.07;;;1.67;;
12224;SDS011;6175;50.956;11.064;2023-12-22T04:13:04;4.75;;;1.75;;
12224;SDS011;6175;50.956;11.064;2023-12-22T04:15:31;7.03;;;1.95;;
12224;SDS011;6175;50.956;11.064;2023-12-22T04:17:58;3.63;;;1.90;;
12224;SDS011;6175;50.956;11.064;2023-12-22T04:20:25;4.45;;;1.67;;
12224;SDS011;6175;50.956;11.064;2023-12-22T04:22:54;4.72;;;1.80;;
12224;SDS011;6175;50.956;11.064;2023-12-22T04:25:21;6.87;;;2.50;;
12224;SDS011;6175;50.956;11.064;2023-12-22T04:27:49;7.55;;;2.10;;
12224;SDS011;6175;50.956;11.064;2023-12-22T04:30:16;4.33;;;1.60;;
12224;SDS011;6175;50.956;11.064;2023-12-22T04:32:43;5.78;;;1.75;;
12224;SDS011;6175;50.956;11.064;2023-12-22T04:35:10;5.72;;;2.17;;
12224;SDS011;6175;50.956;11.064;2023-12-22T04:37:37;7.13;;;1.90;;
12224;SDS011;6175;50.956;11.064;2023-12-22T04:40:06;5.72;;;1.92;;
12224;SDS011;6175;50.956;11.064;2023-12-22T04:42:34;8.10;;;2.15;;
12224;SDS011;6175;50.956;11.064;2023-12-22T04:45:01;2.78;;;1.40;;
12224;SDS011;6175;50.956;11.064;2023-12-22T04:47:27;4.13;;;1.63;;
12224;SDS011;6175;50.956;11.064;2023-12-22T04:49:54;7.25;;;1.63;;
12224;SDS011;6175;50.956;11.064;2023-12-22T04:52:21;5.47;;;2.00;;
12224;SDS011;6175;50.956;11.064;2023-12-22T04:54:48;3.35;;;1.67;;
12224;SDS011;6175;50.956;11.064;2023-12-22T04:57:16;7.10;;;1.83;;
12224;SDS011;6175;50.956;11.064;2023-12-22T04:59:43;4.43;;;1.90;;
12224;SDS011;6175;50.956;11.064;2023-12-22T05:02:10;4.43;;;2.03;;
12224;SDS011;6175;50.956;11.064;2023-12-22T05:04:37;4.30;;;2.03;;
12224;SDS011;6175;50.956;11.064;2023-12-22T05:07:04;6.20;;;1.73;;
12224;SDS011;6175;50.956;11.064;2023-12-22T05:09:32;8.68;;;2.00;;
12224;SDS011;6175;50.956;11.064;2023-12-22T05:11:59;4.78;;;1.88;;
12224;SDS011;6175;50.956;11.064;2023-12-22T05:14:28;4.55;;;1.67;;
12224;SDS011;6175;50.956;11.064;2023-12-22T05:16:55;4.78;;;1.85;;
12224;SDS011;6175;50.956;11.064;2023-12-22T05:19:22;4.75;;;1.77;;
12224;SDS011;6175;50.956;11.064;2023-12-22T05:21:49;4.75;;;1.85;;
12224;SDS011;6175;50.956;11.064;2023-12-22T05:24:17;5.90;;;2.08;;
12224;SDS011;6175;50.956;11.064;2023-12-22T05:26:44;8.85;;;2.08;;
12224;SDS011;6175;50.956;11.064;2023-12-22T05:29:12;7.45;;;1.83;;
12224;SDS011;6175;50.956;11.064;2023-12-22T05:31:40;7.40;;;2.03;;
12224;SDS011;6175;50.956;11.064;2023-12-22T05:34:07;5.22;;;1.95;;
12224;SDS011;6175;50.956;11.064;2023-12-22T05:36:35;5.47;;;1.83;;
12224;SDS011;6175;50.956;11.064;2023-12-22T05:39:02;7.38;;;2.08;;
12224;SDS011;6175;50.956;11.064;2023-12-22T05:41:29;10.60;;;2.92;;
12224;SDS011;6175;50.956;11.064;2023-12-22T05:43:56;6.15;;;1.90;;
12224;SDS011;6175;50.956;11.064;2023-12-22T05:46:23;7.45;;;2.42;;
12224;SDS011;6175;50.956;11.064;2023-12-22T05:48:51;7.57;;;2.03;;
12224;SDS011;6175;50.956;11.064;2023-12-22T05:51:18;7.13;;;2.38;;
12224;SDS011;6175;50.956;11.064;2023-12-22T05:53:45;4.15;;;1.65;;
12224;SDS011;6175;50.956;11.064;2023-12-22T05:56:18;5.93;;;2.05;;
12224;SDS011;6175;50.956;11.064;2023-12-22T05:58:45;3.60;;;1.77;;
12224;SDS011;6175;50.956;11.064;2023-12-22T06:01:16;5.00;;;1.90;;
12224;SDS011;6175;50.956;11.064;2023-12-22T06:03:43;6.07;;;2.42;;
12224;SDS011;6175;50.956;11.064;2023-12-22T06:06:12;4.55;;;1.83;;
12224;SDS011;6175;50.956;11.064;2023-12-22T06:08:39;6.32;;;2.20;;
12224;SDS011;6175;50.956;11.064;2023-12-22T06:11:06;6.45;;;2.13;;
12224;SDS011;6175;50.956;11.064;2023-12-22T06:13:33;7.93;;;2.47;;
12224;SDS011;6175;50.956;11.064;2023-12-22T06:16:00;7.68;;;2.03;;
12224;SDS011;6175;50.956;11.064;2023-12-22T06:18:27;8.32;;;2.22;;
12224;SDS011;6175;50.956;11.064;2023-12-22T06:20:54;9.25;;;2.75;;
12224;SDS011;6175;50.956;11.064;2023-12-22T06:23:23;8.20;;;2.38;;
12224;SDS011;6175;50.956;11.064;2023-12-22T06:25:50;6.53;;;2.33;;
12224;SDS011;6175;50.956;11.064;2023-12-22T06:28:17;10.57;;;3.00;;
12224;SDS011;6175;50.956;11.064;2023-12-22T06:30:44;5.45;;;1.83;;
12224;SDS011;6175;50.956;11.064;2023-12-22T06:33:12;8.07;;;2.05;;
12224;SDS011;6175;50.956;11.064;2023-12-22T06:35:39;5.90;;;2.03;;
12224;SDS011;6175;50.956;11.064;2023-12-22T06:38:06;4.15;;;1.70;;
12224;SDS011;6175;50.956;11.064;2023-12-22T06:40:35;5.82;;;1.77;;
12224;SDS011;6175;50.956;11.064;2023-12-22T06:43:03;8.02;;;1.60;;
12224;SDS011;6175;50.956;11.064;2023-12-22T06:45:30;3.40;;;1.40;;
12224;SDS011;6175;50.956;11.064;2023-12-22T06:47:57;4.55;;;1.20;;
12224;SDS011;6175;50.956;11.064;2023-12-22T06:50:24;2.47;;;1.10;;
12224;SDS011;6175;50.956;11.064;2023-12-22T06:52:51;1.58;;;0.80;;
12224;SDS011;6175;50.956;11.064;2023-12-22T06:55:18;1.20;;;1.08;;
12224;SDS011;6175;50.956;11.064;2023-12-22T06:57:47;1.88;;;1.02;;
12224;SDS011;6175;50.956;11.064;2023-12-22T07:00:14;1.20;;;0.77;;
12224;SDS011;6175;50.956;11.064;2023-12-22T07:02:41;1.95;;;0.80;;
12224;SDS011;6175;50.956;11.064;2023-12-22T07:08:02;2.72;;;1.33;;
12224;SDS011;6175;50.956;11.064;2023-12-22T07:10:30;0.88;;;0.77;;
12224;SDS011;6175;50.956;11.064;2023-12-22T07:12:58;3.40;;;1.38;;
12224;SDS011;6175;50.956;11.064;2023-12-22T07:15:25;2.63;;;1.48;;
12224;SDS011;6175;50.956;11.064;2023-12-22T07:17:53;3.90;;;1.67;;
12224;SDS011;6175;50.956;11.064;2023-12-22T07:20:20;5.95;;;1.45;;
12224;SDS011;6175;50.956;11.064;2023-12-22T07:22:47;3.65;;;1.10;;
12224;SDS011;6175;50.956;11.064;2023-12-22T07:25:16;2.45;;;1.50;;
12224;SDS011;6175;50.956;11.064;2023-12-22T07:27:44;1.88;;;1.30;;
12224;SDS011;6175;50.956;11.064;2023-12-22T07:30:14;4.28;;;1.58;;
12224;SDS011;6175;50.956;11.064;2023-12-22T07:32:44;3.65;;;1.40;;
12224;SDS011;6175;50.956;11.064;2023-12-22T07:35:14;3.65;;;1.15;;
12224;SDS011;6175;50.956;11.064;2023-12-22T07:37:41;4.78;;;1.65;;
12224;SDS011;6175;50.956;11.064;2023-12-22T07:40:09;3.15;;;1.40;;
12224;SDS011;6175;50.956;11.064;2023-12-22T07:42:36;3.72;;;1.40;;
12224;SDS011;6175;50.956;11.064;2023-12-22T07:45:04;2.95;;;1.30;;
12224;SDS011;6175;50.956;11.064;2023-12-22T07:47:34;4.80;;;1.67;;
12224;SDS011;6175;50.956;11.064;2023-12-22T07:50:01;2.10;;;1.20;;
12224;SDS011;6175;50.956;11.064;2023-12-22T07:52:28;1.52;;;1.38;;
12224;SDS011;6175;50.956;11.064;2023-12-22T07:54:55;5.35;;;1.50;;
12224;SDS011;6175;50.956;11.064;2023-12-22T07:57:22;3.50;;;1.67;;
12224;SDS011;6175;50.956;11.064;2023-12-22T07:59:50;6.15;;;1.90;;
12224;SDS011;6175;50.956;11.064;2023-12-22T08:02:17;4.75;;;1.55;;
12224;SDS011;6175;50.956;11.064;2023-12-22T08:04:46;5.50;;;1.45;;
12224;SDS011;6175;50.956;11.064;2023-12-22T08:07:15;4.00;;;1.50;;
12224;SDS011;6175;50.956;11.064;2023-12-22T08:09:42;7.18;;;1.77;;
12224;SDS011;6175;50.956;11.064;2023-12-22T08:12:09;3.88;;;1.40;;
12224;SDS011;6175;50.956;11.064;2023-12-22T08:14:36;7.28;;;1.80;;
12224;SDS011;6175;50.956;11.064;2023-12-22T08:17:03;3.83;;;1.48;;
12224;SDS011;6175;50.956;11.064;2023-12-22T08:19:30;4.45;;;2.45;;
12224;SDS011;6175;50.956;11.064;2023-12-22T08:21:59;6.40;;;1.90;;
12224;SDS011;6175;50.956;11.064;2023-12-22T08:24:26;6.75;;;2.10;;
12224;SDS011;6175;50.956;11.064;2023-12-22T08:26:53;5.95;;;1.95;;
12224;SDS011;6175;50.956;11.064;2023-12-22T08:29:20;6.18;;;2.08;;
12224;SDS011;6175;50.956;11.064;2023-12-22T08:31:47;9.50;;;2.33;;
12224;SDS011;6175;50.956;11.064;2023-12-22T08:34:15;4.80;;;2.03;;
12224;SDS011;6175;50.956;11.064;2023-12-22T08:36:42;5.60;;;1.88;;
12224;SDS011;6175;50.956;11.064;2023-12-22T08:39:10;6.68;;;2.10;;
12224;SDS011;6175;50.956;11.064;2023-12-22T08:41:37;6.95;;;2.05;;
12224;SDS011;6175;50.956;11.064;2023-12-22T08:44:04;4.40;;;1.75;;
12224;SDS011;6175;50.956;11.064;2023-12-22T08:46:32;6.35;;;2.30;;
12224;SDS011;6175;50.956;11.064;2023-12-22T08:48:59;7.28;;;1.45;;
12224;SDS011;6175;50.956;11.064;2023-12-22T08:51:26;6.00;;;2.10;;
12224;SDS011;6175;50.956;11.064;2023-12-22T08:53:53;4.45;;;1.70;;
12224;SDS011;6175;50.956;11.064;2023-12-22T08:56:22;7.38;;;2.15;;
12224;SDS011;6175;50.956;11.064;2023-12-22T08:58:50;6.45;;;1.88;;
12224;SDS011;6175;50.956;11.064;2023-12-22T09:01:19;7.70;;;1.83;;
12224;SDS011;6175;50.956;11.064;2023-12-22T09:03:47;6.32;;;2.00;;
12224;SDS011;6175;50.956;11.064;2023-12-22T09:06:14;5.20;;;1.98;;
12224;SDS011;6175;50.956;11.064;2023-12-22T09:08:42;4.35;;;1.48;;
12224;SDS011;6175;50.956;11.064;2023-12-22T09:11:10;6.82;;;1.95;;
12224;SDS011;6175;50.956;11.064;2023-12-22T09:13:39;5.97;;;1.70;;
12224;SDS011;6175;50.956;11.064;2023-12-22T09:16:06;3.63;;;1.80;;
12224;SDS011;6175;50.956;11.064;2023-12-22T09:18:34;6.07;;;1.90;;
12224;SDS011;6175;50.956;11.064;2023-12-22T09:21:01;7.75;;;2.22;;
12224;SDS011;6175;50.956;11.064;2023-12-22T09:23:28;5.22;;;1.77;;
12224;SDS011;6175;50.956;11.064;2023-12-22T09:25:56;6.80;;;1.90;;
12224;SDS011;6175;50.956;11.064;2023-12-22T09:28:24;5.25;;;2.05;;
12224;SDS011;6175;50.956;11.064;2023-12-22T09:30:52;7.57;;;1.85;;
12224;SDS011;6175;50.956;11.064;2023-12-22T09:33:20;7.47;;;2.47;;
12224;SDS011;6175;50.956;11.064;2023-12-22T09:35:47;5.80;;;2.15;;
12224;SDS011;6175;50.956;11.064;2023-12-22T09:38:14;3.70;;;1.52;;
12224;SDS011;6175;50.956;11.064;2023-12-22T09:40:41;5.63;;;1.80;;
12224;SDS011;6175;50.956;11.064;2023-12-22T09:43:08;6.45;;;1.83;;
12224;SDS011;6175;50.956;11.064;2023-12-22T09:45:37;4.20;;;1.67;;
12224;SDS011;6175;50.956;11.064;2023-12-22T09:48:07;5.03;;;1.85;;
12224;SDS011;6175;50.956;11.064;2023-12-22T09:50:36;5.47;;;1.75;;
12224;SDS011;6175;50.956;11.064;2023-12-22T09:53:04;10.07;;;2.17;;
12224;SDS011;6175;50.956;11.064;2023-12-22T09:55:32;7.03;;;2.05;;
12224;SDS011;6175;50.956;11.064;2023-12-22T09:58:01;9.35;;;2.30;;
12224;SDS011;6175;50.956;11.064;2023-12-22T10:00:29;7.53;;;2.28;;
12224;SDS011;6175;50.956;11.064;2023-12-22T10:02:58;4.88;;;2.05;;
12224;SDS011;6175;50.956;11.064;2023-12-22T10:05:26;7.07;;;2.15;;
12224;SDS011;6175;50.956;11.064;2023-12-22T10:07:55;5.15;;;2.08;;
12224;SDS011;6175;50.956;11.064;2023-12-22T10:10:23;6.72;;;1.98;;
12224;SDS011;6175;50.956;11.064;2023-12-22T10:12:50;8.40;;;2.00;;
12224;SDS011;6175;50.956;11.064;2023-12-22T10:15:19;4.10;;;1.83;;
12224;SDS011;6175;50.956;11.064;2023-12-22T10:17:48;4.30;;;1.65;;
12224;SDS011;6175;50.956;11.064;2023-12-22T10:20:16;5.25;;;1.70;;
12224;SDS011;6175;50.956;11.064;2023-12-22T10:22:44;4.03;;;1.67;;
12224;SDS011;6175;50.956;11.064;2023-12-22T10:25:14;8.25;;;2.28;;
12224;SDS011;6175;50.956;11.064;2023-12-22T10:27:41;6.38;;;1.85;;
12224;SDS011;6175;50.956;11.064;2023-12-22T10:30:09;3.97;;;1.73;;
12224;SDS011;6175;50.956;11.064;2023-12-22T10:32:39;4.22;;;1.70;;
12224;SDS011;6175;50.956;11.064;2023-12-22T10:35:07;6.00;;;1.70;;
12224;SDS011;6175;50.956;11.064;2023-12-22T10:37:34;8.48;;;2.40;;
12224;SDS011;6175;50.956;11.064;2023-12-22T10:40:05;5.50;;;1.60;;
12224;SDS011;6175;50.956;11.064;2023-12-22T10:42:34;6.25;;;1.98;;
12224;SDS011;6175;50.956;11.064;2023-12-22T10:45:01;4.50;;;1.70;;
12224;SDS011;6175;50.956;11.064;2023-12-22T10:47:28;6.40;;;2.13;;
12224;SDS011;6175;50.956;11.064;2023-12-22T10:49:55;5.45;;;1.83;;
12224;SDS011;6175;50.956;11.064;2023-12-22T10:52:22;10.43;;;2.33;;
12224;SDS011;6175;50.956;11.064;2023-12-22T10:54:50;3.35;;;1.40;;
12224;SDS011;6175;50.956;11.064;2023-12-22T10:57:18;4.32;;;2.00;;
12224;SDS011;6175;50.956;11.064;2023-12-22T10:59:46;2.28;;;1.20;;
12224;SDS011;6175;50.956;11.064;2023-12-22T11:02:15;3.97;;;1.50;;
12224;SDS011;6175;50.956;11.064;2023-12-22T11:04:46;3.53;;;1.30;;
12224;SDS011;6175;50.956;11.064;2023-12-22T11:07:17;2.65;;;1.25;;
12224;SDS011;6175;50.956;11.064;2023-12-22T11:09:45;2.20;;;1.23;;
12224;SDS011;6175;50.956;11.064;2023-12-22T11:12:18;3.65;;;1.10;;
12224;SDS011;6175;50.956;11.064;2023-12-22T11:14:45;1.25;;;0.90;;
12224;SDS011;6175;50.956;11.064;2023-12-22T11:17:17;1.25;;;1.13;;
12224;SDS011;6175;50.956;11.064;2023-12-22T11:19:47;1.67;;;0.90;;
12224;SDS011;6175;50.956;11.064;2023-12-22T11:22:16;2.38;;;0.75;;
12224;SDS011;6175;50.956;11.064;2023-12-22T11:24:43;0.63;;;0.55;;
12224;SDS011;6175;50.956;11.064;2023-12-22T11:27:12;5.00;;;1.25;;
12224;SDS011;6175;50.956;11.064;2023-12-22T11:29:41;0.85;;;0.80;;
12224;SDS011;6175;50.956;11.064;2023-12-22T11:32:09;1.35;;;0.95;;
12224;SDS011;6175;50.956;11.064;2023-12-22T11:34:40;0.88;;;0.80;;
12224;SDS011;6175;50.956;11.064;2023-12-22T11:37:09;1.48;;;0.90;;
12224;SDS011;6175;50.956;11.064;2023-12-22T11:39:37;1.20;;;1.05;;
12224;SDS011;6175;50.956;11.064;2023-12-22T11:42:05;1.38;;;1.20;;
12224;SDS011;6175;50.956;11.064;2023-12-22T11:44:34;2.33;;;1.33;;
12224;SDS011;6175;50.956;11.064;2023-12-22T11:47:06;0.75;;;0.75;;
12224;SDS011;6175;50.956;11.064;2023-12-22T11:49:33;1.67;;;1.20;;
12224;SDS011;6175;50.956;11.064;2023-12-22T11:52:09;2.20;;;1.10;;
12224;SDS011;6175;50.956;11.064;2023-12-22T11:54:46;2.42;;;0.75;;
12224;SDS011;6175;50.956;11.064;2023-12-22T11:57:28;2.00;;;0.90;;
12224;SDS011;6175;50.956;11.064;2023-12-22T12:00:01;1.73;;;1.10;;
12224;SDS011;6175;50.956;11.064;2023-12-22T12:02:34;1.60;;;1.00;;
12224;SDS011;6175;50.956;11.064;2023-12-22T12:05:03;1.23;;;0.90;;
12224;SDS011;6175;50.956;11.064;2023-12-22T12:07:39;1.65;;;1.10;;
12224;SDS011;6175;50.956;11.064;2023-12-22T12:10:09;1.63;;;0.85;;
12224;SDS011;6175;50.956;11.064;2023-12-22T12:12:36;2.15;;;1.08;;
12224;SDS011;6175;50.956;11.064;2023-12-22T12:15:07;2.40;;;1.27;;
12224;SDS011;6175;50.956;11.064;2023-12-22T12:17:40;2.17;;;0.90;;
12224;SDS011;6175;50.956;11.064;2023-12-22T12:20:08;1.73;;;1.00;;
12224;SDS011;6175;50.956;11.064;2023-12-22T12:22:37;1.27;;;1.00;;
12224;SDS011;6175;50.956;11.064;2023-12-22T12:25:08;1.77;;;1.15;;
12224;SDS011;6175;50.956;11.064;2023-12-22T12:27:36;1.48;;;1.27;;
12224;SDS011;6175;50.956;11.064;2023-12-22T12:30:06;2.00;;;1.10;;
12224;SDS011;6175;50.956;11.064;2023-12-22T12:32:34;3.17;;;1.27;;
12224;SDS011;6175;50.956;11.064;2023-12-22T12:35:04;2.90;;;1.50;;
12224;SDS011;6175;50.956;11.064;2023-12-22T12:37:32;1.92;;;1.02;;
12224;SDS011;6175;50.956;11.064;2023-12-22T12:39:59;1.50;;;1.10;;
12224;SDS011;6175;50.956;11.064;2023-12-22T12:42:29;1.83;;;1.20;;
12224;SDS011;6175;50.956;11.064;2023-12-22T12:44:56;1.42;;;1.00;;
12224;SDS011;6175;50.956;11.064;2023-12-22T12:47:23;1.77;;;0.98;;
12224;SDS011;6175;50.956;11.064;2023-12-22T12:49:56;2.22;;;1.20;;
12224;SDS011;6175;50.956;11.064;2023-12-22T12:52:25;1.98;;;1.20;;
12224;SDS011;6175;50.956;11.064;2023-12-22T12:54:52;2.78;;;1.17;;
12224;SDS011;6175;50.956;11.064;2023-12-22T12:57:20;3.92;;;1.40;;
12224;SDS011;6175;50.956;11.064;2023-12-22T12:59:48;1.35;;;1.25;;
12224;SDS011;6175;50.956;11.064;2023-12-22T13:02:16;1.85;;;1.00;;
12224;SDS011;6175;50.956;11.064;2023-12-22T13:04:43;2.30;;;1.20;;
12224;SDS011;6175;50.956;11.064;2023-12-22T13:07:10;2.15;;;1.20;;
12224;SDS011;6175;50.956;11.064;2023-12-22T13:09:40;2.28;;;1.23;;
12224;SDS011;6175;50.956;11.064;2023-12-22T13:12:08;4.07;;;1.75;;
12224;SDS011;6175;50.956;11.064;2023-12-22T13:14:35;1.63;;;1.30;;
12224;SDS011;6175;50.956;11.064;2023-12-22T13:17:02;3.28;;;1.60;;
12224;SDS011;6175;50.956;11.064;2023-12-22T13:19:30;3.22;;;1.60;;
12224;SDS011;6175;50.956;11.064;2023-12-22T13:21:58;2.13;;;1.30;;
12224;SDS011;6175;50.956;11.064;2023-12-22T13:24:26;2.08;;;1.50;;
12224;SDS011;6175;50.956;11.064;2023-12-22T13:27:01;1.40;;;1.10;;
12224;SDS011;6175;50.956;11.064;2023-12-22T13:29:34;1.50;;;1.10;;
12224;SDS011;6175;50.956;11.064;2023-12-22T13:32:08;1.25;;;1.15;;
12224;SDS011;6175;50.956;11.064;2023-12-22T13:34:40;0.88;;;0.88;;
12224;SDS011;6175;50.956;11.064;2023-12-22T13:37:13;0.98;;;0.98;;
12224;SDS011;6175;50.956;11.064;2023-12-22T13:39:40;1.05;;;1.05;;
12224;SDS011;6175;50.956;11.064;2023-12-22T13:42:14;0.85;;;0.85;;
12224;SDS011;6175;50.956;11.064;2023-12-22T13:44:43;1.75;;;0.95;;
12224;SDS011;6175;50.956;11.064;2023-12-22T13:47:11;2.08;;;1.10;;
12224;SDS011;6175;50.956;11.064;2023-12-22T13:49:39;2.13;;;1.00;;
12224;SDS011;6175;50.956;11.064;2023-12-22T13:52:06;1.20;;;0.98;;
12224;SDS011;6175;50.956;11.064;2023-12-22T13:54:33;1.65;;;1.15;;
12224;SDS011;6175;50.956;11.064;2023-12-22T13:57:00;0.80;;;0.80;;
12224;SDS011;6175;50.956;11.064;2023-12-22T13:59:32;1.60;;;1.13;;
12224;SDS011;6175;50.956;11.064;2023-12-22T14:01:59;1.50;;;0.95;;
12224;SDS011;6175;50.956;11.064;2023-12-22T14:04:27;1.30;;;0.90;;
12224;SDS011;6175;50.956;11.064;2023-12-22T14:06:54;1.52;;;0.90;;
12224;SDS011;6175;50.956;11.064;2023-12-22T14:09:20;3.28;;;2.25;;
12224;SDS011;6175;50.956;11.064;2023-12-22T14:11:49;1.17;;;1.02;;
12224;SDS011;6175;50.956;11.064;2023-12-22T14:14:17;3.85;;;3.22;;
12224;SDS011;6175;50.956;11.064;2023-12-22T14:16:45;1.27;;;1.23;;
12224;SDS011;6175;50.956;11.064;2023-12-22T14:19:13;0.80;;;0.80;;
12224;SDS011;6175;50.956;11.064;2023-12-22T14:21:40;1.63;;;1.00;;
12224;SDS011;6175;50.956;11.064;2023-12-22T14:24:07;2.38;;;0.90;;
12224;SDS011;6175;50.956;11.064;2023-12-22T14:29:20;1.00;;;1.00;;
12224;SDS011;6175;50.956;11.064;2023-12-22T14:31:48;1.15;;;1.10;;
12224;SDS011;6175;50.956;11.064;2023-12-22T14:34:16;1.42;;;1.30;;
12224;SDS011;6175;50.956;11.064;2023-12-22T14:36:43;1.63;;;1.10;;
12224;SDS011;6175;50.956;11.064;2023-12-22T14:39:10;1.33;;;0.90;;
12224;SDS011;6175;50.956;11.064;2023-12-22T14:41:38;1.50;;;1.40;;
12224;SDS011;6175;50.956;11.064;2023-12-22T14:44:05;1.08;;;1.08;;
12224;SDS011;6175;50.956;11.064;2023-12-22T14:46:32;1.73;;;1.17;;
12224;SDS011;6175;50.956;11.064;2023-12-22T14:49:00;1.70;;;1.27;;
12224;SDS011;6175;50.956;11.064;2023-12-22T14:51:27;1.95;;;1.00;;
12224;SDS011;6175;50.956;11.064;2023-12-22T14:53:56;0.80;;;0.80;;
12224;SDS011;6175;50.956;11.064;2023-12-22T14:56:23;1.55;;;0.93;;